createdAt,value
2023-05-19T00:00:09.345Z,967.23
2023-05-19T00:01:09.327Z,967.22
2023-05-19T00:02:09.589Z,967.21
2023-05-19T00:03:09.610Z,967.20
2023-05-19T00:04:09.293Z,967.18
2023-05-19T00:05:09.294Z,967.19
2023-05-19T00:06:09.370Z,967.18
2023-05-19T00:07:09.246Z,967.19
2023-05-19T00:08:09.265Z,967.19
2023-05-19T00:09:09.242Z,967.19
2023-05-19T00:10:09.365Z,967.18
2023-05-19T00:11:09.236Z,967.18
2023-05-19T00:12:09.231Z,967.18
2023-05-19T00:13:09.209Z,967.16
2023-05-19T00:14:09.204Z,967.15
2023-05-19T00:15:09.269Z,967.13
2023-05-19T00:16:09.244Z,967.13
2023-05-19T00:17:09.229Z,967.12
2023-05-19T00:18:09.249Z,967.11
2023-05-19T00:19:09.154Z,967.10
2023-05-19T00:20:09.188Z,967.10
2023-05-19T00:21:09.195Z,967.09
2023-05-19T00:22:09.120Z,967.09
2023-05-19T00:23:09.113Z,967.07
2023-05-19T00:24:09.119Z,967.07
2023-05-19T00:25:09.113Z,967.07
2023-05-19T00:26:09.109Z,967.08
2023-05-19T00:27:09.094Z,967.08
2023-05-19T00:28:09.046Z,967.09
2023-05-19T00:29:09.070Z,967.09
2023-05-19T00:30:09.046Z,967.09
2023-05-19T00:31:09.150Z,967.10
2023-05-19T00:32:09.206Z,967.10
2023-05-19T00:33:09.080Z,967.10
2023-05-19T00:34:09.015Z,967.09
2023-05-19T00:35:08.990Z,967.09
2023-05-19T00:36:09.038Z,967.09
2023-05-19T00:37:08.969Z,967.08
2023-05-19T00:38:08.948Z,967.08
2023-05-19T00:39:08.932Z,967.09
2023-05-19T00:40:08.970Z,967.07
2023-05-19T00:41:08.927Z,967.06
2023-05-19T00:42:08.922Z,967.05
2023-05-19T00:43:08.902Z,967.03
2023-05-19T00:44:08.865Z,967.06
2023-05-19T00:45:08.992Z,967.02
2023-05-19T00:46:08.922Z,967.01
2023-05-19T00:47:08.957Z,966.99
2023-05-19T00:48:08.860Z,966.98
2023-05-19T00:49:08.816Z,966.99
2023-05-19T00:50:08.822Z,966.99
2023-05-19T00:51:08.802Z,966.99
2023-05-19T00:52:08.844Z,966.99
2023-05-19T00:53:08.789Z,966.99
2023-05-19T00:54:08.860Z,967.01
2023-05-19T00:55:08.854Z,967.00
2023-05-19T00:56:08.826Z,967.00
2023-05-19T00:57:08.774Z,967.00
2023-05-19T00:58:08.734Z,967.00
2023-05-19T00:59:08.764Z,966.99
2023-05-19T01:00:08.739Z,966.98
2023-05-19T01:01:08.770Z,966.97
2023-05-19T01:02:08.683Z,966.98
2023-05-19T01:03:08.736Z,966.95
2023-05-19T01:04:08.785Z,966.93
2023-05-19T01:05:08.695Z,966.93
2023-05-19T01:06:08.680Z,966.91
2023-05-19T01:07:08.674Z,966.92
2023-05-19T01:08:08.700Z,966.92
2023-05-19T01:09:08.671Z,966.92
2023-05-19T01:10:08.694Z,966.95
2023-05-19T01:11:08.618Z,966.94
2023-05-19T01:12:08.659Z,966.96
2023-05-19T01:13:08.573Z,966.95
2023-05-19T01:14:08.591Z,966.94
2023-05-19T01:15:08.556Z,966.94
2023-05-19T01:16:08.579Z,966.93
2023-05-19T01:17:08.550Z,966.92
2023-05-19T01:18:08.593Z,966.91
2023-05-19T01:19:08.544Z,966.90
2023-05-19T01:20:08.525Z,966.91
2023-05-19T01:21:08.510Z,966.92
2023-05-19T01:22:08.540Z,966.93
2023-05-19T01:23:08.487Z,966.96
2023-05-19T01:24:08.476Z,966.99
2023-05-19T01:25:08.460Z,967.01
2023-05-19T01:26:08.456Z,967.02
2023-05-19T01:27:08.430Z,967.04
2023-05-19T01:28:08.426Z,967.04
2023-05-19T01:29:08.425Z,967.05
2023-05-19T01:30:08.541Z,967.07
2023-05-19T01:31:08.418Z,967.06
2023-05-19T01:32:08.560Z,967.06
2023-05-19T01:33:08.417Z,967.07
2023-05-19T01:34:08.376Z,967.06
2023-05-19T01:35:08.349Z,967.05
2023-05-19T01:36:08.480Z,967.05
2023-05-19T01:37:08.373Z,967.05
2023-05-19T01:38:08.339Z,967.04
2023-05-19T01:39:08.376Z,967.03
2023-05-19T01:40:08.339Z,967.00
2023-05-19T01:41:08.375Z,967.02
2023-05-19T01:42:08.324Z,967.01
2023-05-19T01:43:08.277Z,967.02
2023-05-19T01:44:08.274Z,967.03
2023-05-19T01:45:08.301Z,967.05
2023-05-19T01:46:08.297Z,967.06
2023-05-19T01:47:08.226Z,967.06
2023-05-19T01:48:10.850Z,967.05
2023-05-19T01:49:08.229Z,967.04
2023-05-19T01:50:08.210Z,967.03
2023-05-19T01:51:08.207Z,967.01
2023-05-19T01:52:08.205Z,967.00
2023-05-19T01:53:08.195Z,966.97
2023-05-19T01:54:08.153Z,966.97
2023-05-19T01:55:08.178Z,966.93
2023-05-19T01:56:08.143Z,966.93
2023-05-19T01:57:08.153Z,966.93
2023-05-19T01:58:08.118Z,966.92
2023-05-19T01:59:08.133Z,966.91
2023-05-19T02:00:08.153Z,966.91
2023-05-19T02:01:08.165Z,966.90
2023-05-19T02:02:08.134Z,966.89
2023-05-19T02:03:08.236Z,966.89
2023-05-19T02:04:08.079Z,966.90
2023-05-19T02:05:08.033Z,966.92
2023-05-19T02:06:08.076Z,966.91
2023-05-19T02:07:08.034Z,966.91
2023-05-19T02:08:08.041Z,966.92
2023-05-19T02:09:08.063Z,966.92
2023-05-19T02:10:08.028Z,966.91
2023-05-19T02:11:08.045Z,966.91
2023-05-19T02:12:08.012Z,966.92
2023-05-19T02:13:07.975Z,966.92
2023-05-19T02:14:07.950Z,966.92
2023-05-19T02:15:07.985Z,966.91
2023-05-19T02:16:07.958Z,966.91
2023-05-19T02:17:07.920Z,966.92
2023-05-19T02:18:08.056Z,966.91
2023-05-19T02:19:07.918Z,966.91
2023-05-19T02:20:07.895Z,966.91
2023-05-19T02:21:07.891Z,966.93
2023-05-19T02:22:07.949Z,966.95
2023-05-19T02:23:07.892Z,966.95
2023-05-19T02:24:08.007Z,966.96
2023-05-19T02:25:07.870Z,966.97
2023-05-19T02:26:07.854Z,966.98
2023-05-19T02:27:07.848Z,967.02
2023-05-19T02:28:07.887Z,967.02
2023-05-19T02:29:07.806Z,967.03
2023-05-19T02:30:07.836Z,967.04
2023-05-19T02:31:07.776Z,967.05
2023-05-19T02:32:07.868Z,967.05
2023-05-19T02:33:07.828Z,967.05
2023-05-19T02:34:07.746Z,967.05
2023-05-19T02:35:07.785Z,967.04
2023-05-19T02:36:07.744Z,967.03
2023-05-19T02:37:07.840Z,967.02
2023-05-19T02:38:07.760Z,967.00
2023-05-19T02:39:07.714Z,967.00
2023-05-19T02:40:07.782Z,966.98
2023-05-19T02:41:07.684Z,966.98
2023-05-19T02:42:07.665Z,966.97
2023-05-19T02:43:07.703Z,966.97
2023-05-19T02:44:07.697Z,966.97
2023-05-19T02:45:07.646Z,966.94
2023-05-19T02:46:07.756Z,966.94
2023-05-19T02:47:07.645Z,966.93
2023-05-19T02:48:07.681Z,966.92
2023-05-19T02:49:07.626Z,966.90
2023-05-19T02:50:07.581Z,966.91
2023-05-19T02:51:07.629Z,966.89
2023-05-19T02:52:07.619Z,966.88
2023-05-19T02:53:07.603Z,966.87
2023-05-19T02:54:07.538Z,966.86
2023-05-19T02:55:07.573Z,966.85
2023-05-19T02:56:07.532Z,966.85
2023-05-19T02:57:07.576Z,966.84
2023-05-19T02:58:07.537Z,966.83
2023-05-19T02:59:07.546Z,966.82
2023-05-19T03:00:07.510Z,966.82
2023-05-19T03:01:07.510Z,966.81
2023-05-19T03:02:07.636Z,966.82
2023-05-19T03:03:07.530Z,966.81
2023-05-19T03:04:07.603Z,966.81
2023-05-19T03:05:07.445Z,966.81
2023-05-19T03:06:07.455Z,966.81
2023-05-19T03:07:07.399Z,966.80
2023-05-19T03:08:07.360Z,966.80
2023-05-19T03:09:07.379Z,966.78
2023-05-19T03:10:07.339Z,966.78
2023-05-19T03:11:07.320Z,966.78
2023-05-19T03:12:07.345Z,966.76
2023-05-19T03:13:07.407Z,966.77
2023-05-19T03:14:07.340Z,966.79
2023-05-19T03:15:07.261Z,966.79
2023-05-19T03:16:07.382Z,966.78
2023-05-19T03:17:07.265Z,966.79
2023-05-19T03:18:07.295Z,966.79
2023-05-19T03:19:07.310Z,966.80
2023-05-19T03:20:07.214Z,966.81
2023-05-19T03:21:07.217Z,966.81
2023-05-19T03:22:07.190Z,966.81
2023-05-19T03:23:07.213Z,966.82
2023-05-19T03:24:07.252Z,966.80
2023-05-19T03:25:07.187Z,966.83
2023-05-19T03:26:07.161Z,966.83
2023-05-19T03:27:07.203Z,966.81
2023-05-19T03:28:07.224Z,966.83
2023-05-19T03:29:07.230Z,966.79
2023-05-19T03:30:07.160Z,966.80
2023-05-19T03:31:07.129Z,966.80
2023-05-19T03:32:07.178Z,966.79
2023-05-19T03:33:07.220Z,966.79
2023-05-19T03:34:07.122Z,966.80
2023-05-19T03:35:07.078Z,966.80
2023-05-19T03:36:07.057Z,966.82
2023-05-19T03:37:07.065Z,966.83
2023-05-19T03:38:07.073Z,966.80
2023-05-19T03:39:07.043Z,966.80
2023-05-19T03:40:07.023Z,966.81
2023-05-19T03:41:07.058Z,966.82
2023-05-19T03:42:07.022Z,966.81
2023-05-19T03:43:07.081Z,966.83
2023-05-19T03:44:06.991Z,966.82
2023-05-19T03:45:06.985Z,966.82
2023-05-19T03:46:07.084Z,966.82
2023-05-19T03:47:07.000Z,966.82
2023-05-19T03:48:06.985Z,966.81
2023-05-19T03:49:06.942Z,966.80
2023-05-19T03:50:06.953Z,966.80
2023-05-19T03:51:06.958Z,966.82
2023-05-19T03:52:06.949Z,966.83
2023-05-19T03:53:06.951Z,966.87
2023-05-19T03:54:06.950Z,966.85
2023-05-19T03:55:06.956Z,966.85
2023-05-19T03:56:06.972Z,966.86
2023-05-19T03:57:06.921Z,966.87
2023-05-19T03:58:06.912Z,966.88
2023-05-19T03:59:06.879Z,966.88
2023-05-19T04:00:06.866Z,966.91
2023-05-19T04:01:06.816Z,966.92
2023-05-19T04:02:08.215Z,966.93
2023-05-19T04:03:06.892Z,966.94
2023-05-19T04:04:06.954Z,966.94
2023-05-19T04:05:06.834Z,966.93
2023-05-19T04:06:06.750Z,966.92
2023-05-19T04:07:06.745Z,966.92
2023-05-19T04:08:06.741Z,966.90
2023-05-19T04:09:06.774Z,966.90
2023-05-19T04:10:06.716Z,966.87
2023-05-19T04:11:06.788Z,966.89
2023-05-19T04:12:06.792Z,966.89
2023-05-19T04:13:06.691Z,966.89
2023-05-19T04:14:06.689Z,966.90
2023-05-19T04:15:06.705Z,966.90
2023-05-19T04:16:06.737Z,966.91
2023-05-19T04:17:06.694Z,966.90
2023-05-19T04:18:06.767Z,966.90
2023-05-19T04:19:06.726Z,966.91
2023-05-19T04:20:06.672Z,966.93
2023-05-19T04:21:06.611Z,966.92
2023-05-19T04:22:06.584Z,966.92
2023-05-19T04:23:06.603Z,966.92
2023-05-19T04:24:06.770Z,966.92
2023-05-19T04:25:06.594Z,966.92
2023-05-19T04:26:06.554Z,966.92
2023-05-19T04:27:06.565Z,966.92
2023-05-19T04:28:06.574Z,966.92
2023-05-19T04:29:06.561Z,966.93
2023-05-19T04:30:06.548Z,966.94
2023-05-19T04:31:06.583Z,966.94
2023-05-19T04:32:06.519Z,966.95
2023-05-19T04:33:06.556Z,966.95
2023-05-19T04:34:06.579Z,966.97
2023-05-19T04:35:06.583Z,966.97
2023-05-19T04:36:06.525Z,966.96
2023-05-19T04:37:06.486Z,966.96
2023-05-19T04:38:06.490Z,966.96
2023-05-19T04:39:06.449Z,966.94
2023-05-19T04:40:06.444Z,966.96
2023-05-19T04:41:06.460Z,966.94
2023-05-19T04:42:06.447Z,966.95
2023-05-19T04:43:06.471Z,966.93
2023-05-19T04:44:06.404Z,966.92
2023-05-19T04:45:06.441Z,966.92
2023-05-19T04:46:06.454Z,966.93
2023-05-19T04:47:06.627Z,966.90
2023-05-19T04:48:06.462Z,966.91
2023-05-19T04:49:06.371Z,966.91
2023-05-19T04:50:06.326Z,966.93
2023-05-19T04:51:06.341Z,966.96
2023-05-19T04:52:06.345Z,966.96
2023-05-19T04:53:06.278Z,966.95
2023-05-19T04:54:06.342Z,966.96
2023-05-19T04:55:06.269Z,966.97
2023-05-19T04:56:06.260Z,966.97
2023-05-19T04:57:06.254Z,966.97
2023-05-19T04:58:06.218Z,966.96
2023-05-19T04:59:06.288Z,966.94
2023-05-19T05:00:06.228Z,966.95
2023-05-19T05:01:06.230Z,966.94
2023-05-19T05:02:06.290Z,966.91
2023-05-19T05:03:06.253Z,966.92
2023-05-19T05:04:06.353Z,966.90
2023-05-19T05:05:06.162Z,966.93
2023-05-19T05:06:06.144Z,966.92
2023-05-19T05:07:06.145Z,966.97
2023-05-19T05:08:06.136Z,966.93
2023-05-19T05:09:06.150Z,966.94
2023-05-19T05:10:06.091Z,966.96
2023-05-19T05:11:06.069Z,966.95
2023-05-19T05:12:06.065Z,966.95
2023-05-19T05:13:06.098Z,966.95
2023-05-19T05:14:06.078Z,966.94
2023-05-19T05:15:06.041Z,966.95
2023-05-19T05:16:06.086Z,966.95
2023-05-19T05:17:06.033Z,966.98
2023-05-19T05:18:06.125Z,966.95
2023-05-19T05:19:06.089Z,966.95
2023-05-19T05:20:06.023Z,966.96
2023-05-19T05:21:05.983Z,966.95
2023-05-19T05:22:05.981Z,966.95
2023-05-19T05:23:06.008Z,966.95
2023-05-19T05:24:05.952Z,966.96
2023-05-19T05:25:05.948Z,966.96
2023-05-19T05:26:05.936Z,966.97
2023-05-19T05:27:05.940Z,966.95
2023-05-19T05:28:05.928Z,966.95
2023-05-19T05:29:05.919Z,966.95
2023-05-19T05:30:05.919Z,966.95
2023-05-19T05:31:05.881Z,966.94
2023-05-19T05:32:05.921Z,966.95
2023-05-19T05:33:05.902Z,966.93
2023-05-19T05:34:05.834Z,966.92
2023-05-19T05:35:05.844Z,966.92
2023-05-19T05:36:05.843Z,966.92
2023-05-19T05:37:05.810Z,966.94
2023-05-19T05:38:05.828Z,966.91
2023-05-19T05:39:05.844Z,966.94
2023-05-19T05:40:05.842Z,966.94
2023-05-19T05:41:05.831Z,966.95
2023-05-19T05:42:05.815Z,966.97
2023-05-19T05:43:05.802Z,966.94
2023-05-19T05:44:05.781Z,966.94
2023-05-19T05:45:05.736Z,966.92
2023-05-19T05:46:05.819Z,966.96
2023-05-19T05:47:06.409Z,966.98
2023-05-19T05:48:05.781Z,966.95
2023-05-19T05:49:05.724Z,966.98
2023-05-19T05:50:05.719Z,967.01
2023-05-19T05:51:05.682Z,967.01
2023-05-19T05:52:06.810Z,967.00
2023-05-19T05:53:05.674Z,967.01
2023-05-19T05:54:05.638Z,967.00
2023-05-19T05:55:05.642Z,967.00
2023-05-19T05:56:05.686Z,967.03
2023-05-19T05:57:05.634Z,967.01
2023-05-19T05:58:05.621Z,967.01
2023-05-19T05:59:05.629Z,967.02
2023-05-19T06:00:05.573Z,966.99
2023-05-19T06:01:05.590Z,967.04
2023-05-19T06:02:05.641Z,967.05
2023-05-19T06:03:05.709Z,967.05
2023-05-19T06:04:05.645Z,967.02
2023-05-19T06:05:05.584Z,967.04
2023-05-19T06:06:05.665Z,967.04
2023-05-19T06:07:05.529Z,967.03
2023-05-19T06:08:05.508Z,967.04
2023-05-19T06:09:05.521Z,967.02
2023-05-19T06:10:05.538Z,967.02
2023-05-19T06:11:05.570Z,967.01
2023-05-19T06:12:05.475Z,966.99
2023-05-19T06:13:05.448Z,966.98
2023-05-19T06:14:05.504Z,967.01
2023-05-19T06:15:05.562Z,967.00
2023-05-19T06:16:05.513Z,966.98
2023-05-19T06:17:05.502Z,966.97
2023-05-19T06:18:05.556Z,967.06
2023-05-19T06:19:05.518Z,966.95
2023-05-19T06:20:05.473Z,966.94
2023-05-19T06:21:05.374Z,966.94
2023-05-19T06:22:05.380Z,966.94
2023-05-19T06:23:05.333Z,966.93
2023-05-19T06:24:05.385Z,966.93
2023-05-19T06:25:05.367Z,966.94
2023-05-19T06:26:05.346Z,966.99
2023-05-19T06:27:05.309Z,966.94
2023-05-19T06:28:05.292Z,966.94
2023-05-19T06:29:05.299Z,966.94
2023-05-19T06:30:05.272Z,966.92
2023-05-19T06:31:05.307Z,966.92
2023-05-19T06:32:05.281Z,966.94
2023-05-19T06:33:05.313Z,966.89
2023-05-19T06:34:05.277Z,966.90
2023-05-19T06:35:05.253Z,966.90
2023-05-19T06:36:05.207Z,966.91
2023-05-19T06:37:05.207Z,966.97
2023-05-19T06:38:05.187Z,967.02
2023-05-19T06:39:05.187Z,966.93
2023-05-19T06:40:05.171Z,967.01
2023-05-19T06:41:05.159Z,966.96
2023-05-19T06:42:05.135Z,966.97
2023-05-19T06:43:05.142Z,967.09
2023-05-19T06:44:05.159Z,966.98
2023-05-19T06:45:05.107Z,967.00
2023-05-19T06:46:05.112Z,966.98
2023-05-19T06:47:05.194Z,967.03
2023-05-19T06:48:05.253Z,966.93
2023-05-19T06:49:05.068Z,966.93
2023-05-19T06:50:05.068Z,966.96
2023-05-19T06:51:05.066Z,966.91
2023-05-19T06:52:05.083Z,966.92
2023-05-19T06:53:05.032Z,966.93
2023-05-19T06:54:05.025Z,966.90
2023-05-19T06:55:05.051Z,966.97
2023-05-19T06:56:05.004Z,966.92
2023-05-19T06:57:05.002Z,966.94
2023-05-19T06:58:04.970Z,966.94
2023-05-19T06:59:04.964Z,966.94
2023-05-19T07:00:05.015Z,966.93
2023-05-19T07:01:04.940Z,966.94
2023-05-19T07:02:04.993Z,966.96
2023-05-19T07:03:04.993Z,966.93
2023-05-19T07:04:04.973Z,966.94
2023-05-19T07:05:04.901Z,966.92
2023-05-19T07:06:07.756Z,966.90
2023-05-19T07:07:04.880Z,966.94
2023-05-19T07:08:04.879Z,966.95
2023-05-19T07:09:04.876Z,966.94
2023-05-19T07:10:04.877Z,967.05
2023-05-19T07:11:04.852Z,966.95
2023-05-19T07:12:04.861Z,967.01
2023-05-19T07:13:04.837Z,967.02
2023-05-19T07:14:04.820Z,966.95
2023-05-19T07:15:04.824Z,966.94
2023-05-19T07:16:04.830Z,966.93
2023-05-19T07:17:04.776Z,966.94
2023-05-19T07:18:04.840Z,966.95
2023-05-19T07:19:04.940Z,966.97
2023-05-19T07:20:04.755Z,966.98
2023-05-19T07:21:04.755Z,966.98
2023-05-19T07:22:04.743Z,966.96
2023-05-19T07:23:04.718Z,966.95
2023-05-19T07:24:04.745Z,966.95
2023-05-19T07:25:04.727Z,966.95
2023-05-19T07:26:04.677Z,966.91
2023-05-19T07:27:04.806Z,966.95
2023-05-19T07:28:04.678Z,966.98
2023-05-19T07:29:04.690Z,966.94
2023-05-19T07:30:04.689Z,966.96
2023-05-19T07:31:04.645Z,966.93
2023-05-19T07:32:04.681Z,966.93
2023-05-19T07:33:04.668Z,966.94
2023-05-19T07:34:04.616Z,966.93
2023-05-19T07:35:04.638Z,966.94
2023-05-19T07:36:04.635Z,966.96
2023-05-19T07:37:04.595Z,966.99
2023-05-19T07:38:04.649Z,966.97
2023-05-19T07:39:04.754Z,966.91
2023-05-19T07:40:04.537Z,966.92
2023-05-19T07:41:04.554Z,966.95
2023-05-19T07:42:04.529Z,966.92
2023-05-19T07:43:04.562Z,966.91
2023-05-19T07:44:04.502Z,966.88
2023-05-19T07:45:04.471Z,966.87
2023-05-19T07:46:04.529Z,966.91
2023-05-19T07:47:04.457Z,967.00
2023-05-19T07:48:04.536Z,966.92
2023-05-19T07:49:04.472Z,966.97
2023-05-19T07:50:04.580Z,966.91
2023-05-19T07:51:04.457Z,966.92
2023-05-19T07:52:04.486Z,966.95
2023-05-19T07:53:04.434Z,966.91
2023-05-19T07:54:04.414Z,966.91
2023-05-19T07:55:04.431Z,966.94
2023-05-19T07:56:04.374Z,966.90
2023-05-19T07:57:04.375Z,966.86
2023-05-19T07:58:04.362Z,966.82
2023-05-19T07:59:04.428Z,966.84
2023-05-19T08:00:04.328Z,966.81
2023-05-19T08:01:04.318Z,966.83
2023-05-19T08:02:04.348Z,966.79
2023-05-19T08:03:04.362Z,966.77
2023-05-19T08:04:04.438Z,966.77
2023-05-19T08:05:04.289Z,966.80
2023-05-19T08:06:04.289Z,966.81
2023-05-19T08:07:04.302Z,966.84
2023-05-19T08:08:04.259Z,966.81
2023-05-19T08:09:04.263Z,966.81
2023-05-19T08:10:04.233Z,966.76
2023-05-19T08:11:04.304Z,966.75
2023-05-19T08:12:04.214Z,966.74
2023-05-19T08:13:04.213Z,966.74
2023-05-19T08:14:04.185Z,966.75
2023-05-19T08:15:04.193Z,966.77
2023-05-19T08:16:04.307Z,966.75
2023-05-19T08:17:04.174Z,966.76
2023-05-19T08:18:04.219Z,966.72
2023-05-19T08:19:04.220Z,966.71
2023-05-19T08:20:04.196Z,966.72
2023-05-19T08:21:04.130Z,966.70
2023-05-19T08:22:04.104Z,966.73
2023-05-19T08:23:04.098Z,966.75
2023-05-19T08:24:04.096Z,966.70
2023-05-19T08:25:04.137Z,966.70
2023-05-19T08:26:04.106Z,966.69
2023-05-19T08:27:04.075Z,966.68
2023-05-19T08:28:04.059Z,966.72
2023-05-19T08:29:04.054Z,966.67
2023-05-19T08:30:04.046Z,966.69
2023-05-19T08:31:04.020Z,966.71
2023-05-19T08:32:03.999Z,966.77
2023-05-19T08:33:04.050Z,966.73
2023-05-19T08:34:04.046Z,966.71
2023-05-19T08:35:04.041Z,966.74
2023-05-19T08:36:03.968Z,966.71
2023-05-19T08:37:03.955Z,966.67
2023-05-19T08:38:03.963Z,966.64
2023-05-19T08:39:04.004Z,966.65
2023-05-19T08:40:03.927Z,966.64
2023-05-19T08:41:03.916Z,966.63
2023-05-19T08:42:03.918Z,966.63
2023-05-19T08:43:03.915Z,966.66
2023-05-19T08:44:03.937Z,966.61
2023-05-19T08:45:03.896Z,966.60
2023-05-19T08:46:03.855Z,966.64
2023-05-19T08:47:03.877Z,966.59
2023-05-19T08:48:03.965Z,966.59
2023-05-19T08:49:03.854Z,966.58
2023-05-19T08:50:03.835Z,966.57
2023-05-19T08:51:03.858Z,966.59
2023-05-19T08:52:03.858Z,966.54
2023-05-19T08:53:03.787Z,966.56
2023-05-19T08:54:03.829Z,966.56
2023-05-19T08:55:03.775Z,966.60
2023-05-19T08:56:03.759Z,966.60
2023-05-19T08:57:03.758Z,966.60
2023-05-19T08:58:03.758Z,966.58
2023-05-19T08:59:03.758Z,966.59
2023-05-19T09:00:03.732Z,966.59
2023-05-19T09:01:03.778Z,966.65
2023-05-19T09:02:03.745Z,966.57
2023-05-19T09:03:17.416Z,966.55
2023-05-19T09:04:03.753Z,966.54
2023-05-19T09:05:03.742Z,966.52
2023-05-19T09:06:03.675Z,966.50
2023-05-19T09:07:03.664Z,966.54
2023-05-19T09:08:03.654Z,966.53
2023-05-19T09:09:03.630Z,966.48
2023-05-19T09:10:03.644Z,966.46
2023-05-19T09:11:03.600Z,966.51
2023-05-19T09:12:03.616Z,966.50
2023-05-19T09:13:03.574Z,966.51
2023-05-19T09:14:03.581Z,966.57
2023-05-19T09:15:03.586Z,966.56
2023-05-19T09:16:03.735Z,966.52
2023-05-19T09:17:03.749Z,966.55
2023-05-19T09:18:03.592Z,966.52
2023-05-19T09:19:03.595Z,966.54
2023-05-19T09:20:03.590Z,966.54
2023-05-19T09:21:03.584Z,966.54
2023-05-19T09:22:03.543Z,966.59
2023-05-19T09:23:03.489Z,966.64
2023-05-19T09:24:03.472Z,966.59
2023-05-19T09:25:03.451Z,966.63
2023-05-19T09:26:03.511Z,966.56
2023-05-19T09:27:03.438Z,966.55
2023-05-19T09:28:03.494Z,966.56
2023-05-19T09:29:03.411Z,966.58
2023-05-19T09:30:03.459Z,966.58
2023-05-19T09:31:03.398Z,966.63
2023-05-19T09:32:03.418Z,966.56
2023-05-19T09:33:03.400Z,966.57
2023-05-19T09:34:03.355Z,966.55
2023-05-19T09:35:03.427Z,966.49
2023-05-19T09:36:03.365Z,966.54
2023-05-19T09:37:03.346Z,966.53
2023-05-19T09:38:03.339Z,966.52
2023-05-19T09:39:03.362Z,966.54
2023-05-19T09:40:03.344Z,966.48
2023-05-19T09:41:03.286Z,966.52
2023-05-19T09:42:03.286Z,966.53
2023-05-19T09:43:03.259Z,966.52
2023-05-19T09:44:03.318Z,966.48
2023-05-19T09:45:03.250Z,966.51
2023-05-19T09:46:03.287Z,966.51
2023-05-19T09:47:03.223Z,966.50
2023-05-19T09:48:03.248Z,966.49
2023-05-19T09:49:03.217Z,966.56
2023-05-19T09:50:03.186Z,966.49
2023-05-19T09:51:03.185Z,966.46
2023-05-19T09:52:03.188Z,966.53
2023-05-19T09:53:03.180Z,966.53
2023-05-19T09:54:03.230Z,966.50
2023-05-19T09:55:03.169Z,966.43
2023-05-19T09:56:03.149Z,966.43
2023-05-19T09:57:03.162Z,966.46
2023-05-19T09:58:03.188Z,966.41
2023-05-19T09:59:03.114Z,966.43
2023-05-19T10:00:03.115Z,966.45
2023-05-19T10:01:03.129Z,966.46
2023-05-19T10:02:03.305Z,966.49
2023-05-19T10:03:03.118Z,966.50
2023-05-19T10:04:03.853Z,966.43
2023-05-19T10:05:03.144Z,966.47
2023-05-19T10:06:03.036Z,966.45
2023-05-19T10:07:03.022Z,966.46
2023-05-19T10:08:03.028Z,966.53
2023-05-19T10:09:03.003Z,966.44
2023-05-19T10:10:03.016Z,966.51
2023-05-19T10:11:02.988Z,966.49
2023-05-19T10:12:02.990Z,966.46
2023-05-19T10:13:02.974Z,966.48
2023-05-19T10:14:02.955Z,966.46
2023-05-19T10:15:03.054Z,966.46
2023-05-19T10:16:03.224Z,966.45
2023-05-19T10:17:03.078Z,966.45
2023-05-19T10:18:02.932Z,966.47
2023-05-19T10:19:02.995Z,966.44
2023-05-19T10:20:02.891Z,966.46
2023-05-19T10:21:03.143Z,966.46
2023-05-19T10:22:02.872Z,966.47
2023-05-19T10:23:02.863Z,966.49
2023-05-19T10:24:02.872Z,966.51
2023-05-19T10:25:02.837Z,966.54
2023-05-19T10:26:02.850Z,966.52
2023-05-19T10:27:02.852Z,966.51
2023-05-19T10:28:02.823Z,966.50
2023-05-19T10:29:02.811Z,966.46
2023-05-19T10:30:02.812Z,966.43
2023-05-19T10:31:02.785Z,966.42
2023-05-19T10:32:02.814Z,966.36
2023-05-19T10:33:02.792Z,966.44
2023-05-19T10:34:02.739Z,966.40
2023-05-19T10:35:02.753Z,966.40
2023-05-19T10:36:02.732Z,966.39
2023-05-19T10:37:02.752Z,966.40
2023-05-19T10:38:02.707Z,966.41
2023-05-19T10:39:02.719Z,966.42
2023-05-19T10:40:02.747Z,966.39
2023-05-19T10:41:02.676Z,966.38
2023-05-19T10:42:02.699Z,966.36
2023-05-19T10:43:02.661Z,966.35
2023-05-19T10:44:02.654Z,966.38
2023-05-19T10:45:02.653Z,966.43
2023-05-19T10:46:02.609Z,966.41
2023-05-19T10:47:02.790Z,966.45
2023-05-19T10:48:02.661Z,966.42
2023-05-19T10:49:02.636Z,966.35
2023-05-19T10:50:02.584Z,966.37
2023-05-19T10:51:02.605Z,966.43
2023-05-19T10:52:02.547Z,966.35
2023-05-19T10:53:02.567Z,966.38
2023-05-19T10:54:02.538Z,966.38
2023-05-19T10:55:02.545Z,966.37
2023-05-19T10:56:02.516Z,966.39
2023-05-19T10:57:02.506Z,966.34
2023-05-19T10:58:02.488Z,966.40
2023-05-19T10:59:02.501Z,966.41
2023-05-19T11:00:02.484Z,966.44
2023-05-19T11:01:02.457Z,966.43
2023-05-19T11:02:02.504Z,966.42
2023-05-19T11:03:02.527Z,966.44
2023-05-19T11:04:02.484Z,966.42
2023-05-19T11:05:02.437Z,966.46
2023-05-19T11:06:02.409Z,966.46
2023-05-19T11:07:02.404Z,966.46
2023-05-19T11:08:02.560Z,966.44
2023-05-19T11:09:02.396Z,966.45
2023-05-19T11:10:02.408Z,966.48
2023-05-19T11:11:02.368Z,966.50
2023-05-19T11:12:02.368Z,966.47
2023-05-19T11:13:02.401Z,966.47
2023-05-19T11:14:02.330Z,966.45
2023-05-19T11:15:02.344Z,966.43
2023-05-19T11:16:02.320Z,966.43
2023-05-19T11:17:02.616Z,966.43
2023-05-19T11:18:02.323Z,966.46
2023-05-19T11:19:02.334Z,966.48
2023-05-19T11:20:02.294Z,966.48
2023-05-19T11:21:02.470Z,966.46
2023-05-19T11:22:02.264Z,966.45
2023-05-19T11:23:02.280Z,966.42
2023-05-19T11:24:02.394Z,966.45
2023-05-19T11:25:02.264Z,966.43
2023-05-19T11:26:02.206Z,966.46
2023-05-19T11:27:02.215Z,966.50
2023-05-19T11:28:02.198Z,966.44
2023-05-19T11:29:02.219Z,966.45
2023-05-19T11:30:02.327Z,966.47
2023-05-19T11:31:02.164Z,966.44
2023-05-19T11:32:02.184Z,966.42
2023-05-19T11:33:02.213Z,966.47
2023-05-19T11:34:02.110Z,966.45
2023-05-19T11:35:02.132Z,966.44
2023-05-19T11:36:02.142Z,966.40
2023-05-19T11:37:02.083Z,966.42
2023-05-19T11:38:02.097Z,966.39
2023-05-19T11:39:02.089Z,966.29
2023-05-19T11:40:02.102Z,966.38
2023-05-19T11:41:02.072Z,966.39
2023-05-19T11:42:02.045Z,966.35
2023-05-19T11:43:02.069Z,966.36
2023-05-19T11:44:02.037Z,966.32
2023-05-19T11:45:02.034Z,966.33
2023-05-19T11:46:02.032Z,966.32
2023-05-19T11:47:02.028Z,966.31
2023-05-19T11:48:03.260Z,966.30
2023-05-19T11:49:01.981Z,966.28
2023-05-19T11:50:01.990Z,966.27
2023-05-19T11:51:01.951Z,966.30
2023-05-19T11:52:01.947Z,966.31
2023-05-19T11:53:02.091Z,966.28
2023-05-19T11:54:01.940Z,966.29
2023-05-19T11:55:01.953Z,966.29
2023-05-19T11:56:01.884Z,966.30
2023-05-19T11:57:01.894Z,966.32
2023-05-19T11:58:04.454Z,966.32
2023-05-19T11:59:01.869Z,966.35
2023-05-19T12:00:01.877Z,966.29
2023-05-19T12:01:01.836Z,966.31
2023-05-19T12:02:01.845Z,966.31
2023-05-19T12:03:01.864Z,966.34
2023-05-19T12:04:01.849Z,966.32
2023-05-19T12:05:01.847Z,966.31
2023-05-19T12:06:01.798Z,966.31
2023-05-19T12:07:01.781Z,966.33
2023-05-19T12:08:01.775Z,966.30
2023-05-19T12:09:01.804Z,966.28
2023-05-19T12:10:01.750Z,966.27
2023-05-19T12:11:01.744Z,966.28
2023-05-19T12:12:01.758Z,966.29
2023-05-19T12:13:01.720Z,966.30
2023-05-19T12:14:01.757Z,966.33
2023-05-19T12:15:01.739Z,966.32
2023-05-19T12:16:01.756Z,966.32
2023-05-19T12:17:01.689Z,966.32
2023-05-19T12:18:01.755Z,966.34
2023-05-19T12:19:01.772Z,966.32
2023-05-19T12:20:01.670Z,966.34
2023-05-19T12:21:01.647Z,966.34
2023-05-19T12:22:03.483Z,966.35
2023-05-19T12:23:01.626Z,966.38
2023-05-19T12:24:01.596Z,966.42
2023-05-19T12:25:01.682Z,966.40
2023-05-19T12:26:01.606Z,966.37
2023-05-19T12:27:01.657Z,966.40
2023-05-19T12:28:01.564Z,966.40